Time;durP1;ratioP1;P1;durP2;ratioP2;P2;SDS_P1;SDS_P2;PMS_P1;PMS_P2;Temp;Humidity;BMP_temperature;BMP_pressure;BME280_temperature;BME280_humidity;BME280_pressure;Samples;Min_cycle;Max_cycle;Signal;HPM_P1;HPM_P2
2021/07/22 00:00:23;;;;;;;9.73;8.60;;;16.20;99.90;;;;;;5089730;28;20960;-67
2021/07/22 00:02:50;;;;;;;9.97;8.80;;;16.10;99.90;;;;;;5089898;28;20546;-66
2021/07/22 00:05:18;;;;;;;10.57;9.23;;;16.10;99.90;;;;;;5089806;28;20486;-66
2021/07/22 00:07:47;;;;;;;10.43;9.17;;;16.10;99.90;;;;;;5090028;28;20442;-66
2021/07/22 00:10:14;;;;;;;12.20;9.60;;;16.10;99.90;;;;;;5089893;28;20489;-66
2021/07/22 00:12:41;;;;;;;13.33;9.57;;;16.00;99.90;;;;;;5090028;28;20446;-66
2021/07/22 00:15:09;;;;;;;10.80;9.70;;;16.00;99.90;;;;;;5090063;28;21218;-66
2021/07/22 00:17:36;;;;;;;13.90;10.10;;;15.90;99.90;;;;;;5093166;28;20537;-66
2021/07/22 00:20:05;;;;;;;12.00;10.57;;;15.90;99.90;;;;;;5093652;28;20532;-67
2021/07/22 00:22:36;;;;;;;10.73;9.60;;;15.90;99.90;;;;;;5093938;28;20932;-66
2021/07/22 00:25:03;;;;;;;14.50;10.30;;;15.90;99.90;;;;;;5094097;28;20751;-65
2021/07/22 00:27:30;;;;;;;18.03;10.07;;;16.00;99.90;;;;;;5094178;28;20537;-66
2021/07/22 00:29:57;;;;;;;10.40;9.20;;;15.80;99.90;;;;;;5093715;28;20532;-68
2021/07/22 00:32:24;;;;;;;13.03;8.40;;;15.90;99.90;;;;;;5093876;28;20820;-66
2021/07/22 00:34:51;;;;;;;10.40;8.37;;;15.80;99.90;;;;;;5093815;28;20488;-66
2021/07/22 00:37:18;;;;;;;12.03;9.97;;;15.60;99.90;;;;;;5093722;28;20446;-66
2021/07/22 00:39:46;;;;;;;22.10;11.67;;;15.60;99.90;;;;;;5093546;28;20448;-66
2021/07/22 00:42:13;;;;;;;11.10;9.90;;;15.50;99.90;;;;;;5093581;28;20450;-66
2021/07/22 00:44:40;;;;;;;13.90;11.43;;;15.50;99.90;;;;;;5093526;28;20485;-66
2021/07/22 00:47:07;;;;;;;13.70;11.43;;;15.40;99.90;;;;;;5093716;28;20833;-66
2021/07/22 00:49:34;;;;;;;13.80;10.70;;;15.30;99.90;;;;;;5093286;28;20849;-67
2021/07/22 00:52:00;;;;;;;11.40;10.20;;;15.30;99.90;;;;;;5093503;28;20537;-65
2021/07/22 00:54:27;;;;;;;11.63;10.20;;;15.30;99.90;;;;;;5093533;28;20545;-66
2021/07/22 00:56:55;;;;;;;13.50;10.37;;;15.20;99.90;;;;;;5093178;28;20454;-66
2021/07/22 00:59:22;;;;;;;11.20;9.47;;;15.10;99.90;;;;;;5093336;28;20446;-67
2021/07/22 01:01:49;;;;;;;11.53;9.93;;;15.00;99.90;;;;;;5093611;28;20449;-66
2021/07/22 01:04:18;;;;;;;13.00;9.40;;;15.00;99.90;;;;;;5093412;28;20473;-66
2021/07/22 01:06:45;;;;;;;10.50;9.10;;;15.00;99.90;;;;;;5093157;28;20458;-66
2021/07/22 01:09:11;;;;;;;11.97;10.20;;;14.90;99.90;;;;;;5092992;28;20446;-66
2021/07/22 01:11:38;;;;;;;12.90;10.50;;;14.90;99.90;;;;;;5092983;28;20450;-67
2021/07/22 01:14:07;;;;;;;14.50;10.97;;;15.00;99.90;;;;;;5093154;28;20478;-66
2021/07/22 01:16:33;;;;;;;12.40;10.47;;;14.90;99.90;;;;;;5092900;28;20442;-67
2021/07/22 01:19:01;;;;;;;14.60;10.03;;;15.00;99.90;;;;;;5092531;28;20458;-65
2021/07/22 01:21:29;;;;;;;12.33;10.30;;;14.90;99.90;;;;;;5093807;28;20869;-67
2021/07/22 01:23:56;;;;;;;14.43;10.80;;;15.00;99.90;;;;;;5093221;28;20488;-66
2021/07/22 01:26:23;;;;;;;14.50;10.20;;;14.90;99.90;;;;;;5093487;28;20812;-66
2021/07/22 01:28:50;;;;;;;11.70;10.40;;;14.80;99.90;;;;;;5091945;28;20449;-66
2021/07/22 01:31:23;;;;;;;12.20;9.60;;;14.80;99.90;;;;;;5092310;28;20452;-67
2021/07/22 01:33:50;;;;;;;11.30;9.97;;;14.80;99.90;;;;;;5092785;28;20830;-66
2021/07/22 01:36:22;;;;;;;13.70;10.30;;;14.80;99.90;;;;;;5092444;28;20456;-66
2021/07/22 01:38:50;;;;;;;14.40;11.03;;;14.80;99.90;;;;;;5092451;28;20453;-66
2021/07/22 01:41:17;;;;;;;13.00;11.23;;;14.70;99.90;;;;;;5092462;28;20453;-66
2021/07/22 01:43:44;;;;;;;13.93;10.40;;;14.70;99.90;;;;;;5092318;28;20470;-65
2021/07/22 01:46:11;;;;;;;13.30;10.43;;;14.70;99.90;;;;;;5092447;28;20529;-67
2021/07/22 01:48:38;;;;;;;13.93;11.10;;;14.60;99.90;;;;;;5092284;28;20924;-66
2021/07/22 01:51:06;;;;;;;15.60;11.60;;;14.60;99.90;;;;;;5091985;28;20533;-66
2021/07/22 01:53:33;;;;;;;15.30;11.53;;;14.50;99.90;;;;;;5092378;28;20472;-66
2021/07/22 01:56:04;;;;;;;12.40;10.00;;;14.50;99.90;;;;;;5092452;28;20486;-66
2021/07/22 01:58:31;;;;;;;12.43;10.70;;;14.40;99.90;;;;;;5092160;28;20519;-66
2021/07/22 02:00:57;;;;;;;13.83;12.20;;;14.50;99.90;;;;;;5091967;28;20446;-67
2021/07/22 02:03:24;;;;;;;12.37;10.43;;;14.50;99.90;;;;;;5091945;28;20442;-66
2021/07/22 02:05:51;;;;;;;15.67;11.97;;;14.50;99.90;;;;;;5092120;28;20478;-66
2021/07/22 02:08:18;;;;;;;14.77;11.53;;;14.50;99.90;;;;;;5092359;28;20545;-67
2021/07/22 02:10:45;;;;;;;14.03;10.47;;;14.50;99.90;;;;;;5091945;28;20450;-65
2021/07/22 02:13:13;;;;;;;15.60;11.20;;;14.40;99.90;;;;;;5092206;28;20464;-65
2021/07/22 02:15:40;;;;;;;14.10;10.93;;;14.40;99.90;;;;;;5092285;28;20445;-66
2021/07/22 02:18:07;;;;;;;13.83;11.43;;;14.40;99.90;;;;;;5091745;28;20466;-66
2021/07/22 02:20:34;;;;;;;15.93;11.30;;;14.40;99.90;;;;;;5091656;28;20521;-68
2021/07/22 02:23:01;;;;;;;16.37;11.87;;;14.40;99.90;;;;;;5091677;28;20447;-66
2021/07/22 02:25:28;;;;;;;13.33;11.10;;;14.40;99.90;;;;;;5091736;28;20485;-66
2021/07/22 02:27:54;;;;;;;13.97;11.47;;;14.40;99.90;;;;;;5091648;28;20446;-67
2021/07/22 02:30:22;;;;;;;13.20;11.10;;;14.20;99.90;;;;;;5091171;28;20452;-66
2021/07/22 02:32:49;;;;;;;14.90;11.50;;;14.30;99.90;;;;;;5091438;28;20452;-67
2021/07/22 02:35:16;;;;;;;15.53;10.83;;;14.20;99.90;;;;;;5091493;28;20545;-66
2021/07/22 02:37:43;;;;;;;16.20;13.07;;;14.20;99.90;;;;;;5091677;28;20451;-67
2021/07/22 02:40:10;;;;;;;17.90;12.70;;;14.20;99.90;;;;;;5090658;28;20454;-66
2021/07/22 02:42:37;;;;;;;13.23;11.83;;;14.20;99.90;;;;;;5091561;28;20449;-66
2021/07/22 02:45:05;;;;;;;16.80;13.73;;;14.20;99.90;;;;;;5091096;28;20482;-66
2021/07/22 02:47:33;;;;;;;16.20;12.10;;;14.10;99.90;;;;;;5091288;28;20439;-66
2021/07/22 02:50:00;;;;;;;16.97;12.20;;;14.10;99.90;;;;;;5091038;28;20460;-66
2021/07/22 02:52:27;;;;;;;18.03;12.43;;;14.00;99.90;;;;;;5091926;28;20944;-67
2021/07/22 02:54:54;;;;;;;17.10;13.73;;;14.00;99.90;;;;;;5091222;28;20530;-67
2021/07/22 02:57:20;;;;;;;15.40;13.13;;;14.00;99.90;;;;;;5091075;28;20450;-66
2021/07/22 02:59:47;;;;;;;15.50;11.40;;;14.10;99.90;;;;;;5090634;28;20450;-67
2021/07/22 03:02:14;;;;;;;14.60;12.57;;;14.10;99.90;;;;;;5091129;28;20449;-67
2021/07/22 03:04:42;;;;;;;16.63;13.47;;;14.00;99.90;;;;;;5090644;28;20492;-66
2021/07/22 03:07:09;;;;;;;13.73;11.30;;;13.90;99.90;;;;;;5090812;28;20450;-66
2021/07/22 03:09:36;;;;;;;14.47;11.80;;;13.90;99.90;;;;;;5090276;28;20943;-65
2021/07/22 03:12:03;;;;;;;13.97;12.00;;;14.00;99.90;;;;;;5090552;28;20834;-67
2021/07/22 03:14:30;;;;;;;14.00;11.50;;;13.90;99.90;;;;;;5090457;28;20545;-66
2021/07/22 03:16:57;;;;;;;18.40;12.07;;;13.90;99.90;;;;;;5090812;28;20446;-67
2021/07/22 03:19:23;;;;;;;14.70;13.20;;;14.00;99.90;;;;;;5090135;28;20964;-66
2021/07/22 03:21:52;;;;;;;16.63;12.93;;;14.00;99.90;;;;;;5090777;28;20458;-66
2021/07/22 03:24:19;;;;;;;16.70;12.73;;;14.10;99.90;;;;;;5090515;28;20492;-67
2021/07/22 03:26:45;;;;;;;16.63;11.80;;;14.10;99.90;;;;;;5090397;28;20453;-68
2021/07/22 03:29:12;;;;;;;16.03;12.30;;;14.00;99.90;;;;;;5089954;28;20446;-65
2021/07/22 03:31:39;;;;;;;19.07;14.67;;;14.00;99.90;;;;;;5090394;28;20533;-65
2021/07/22 03:34:06;;;;;;;16.23;12.50;;;14.10;99.90;;;;;;5090424;28;21224;-65
2021/07/22 03:36:33;;;;;;;13.80;11.60;;;14.10;99.90;;;;;;5090382;28;20449;-66
2021/07/22 03:39:01;;;;;;;17.23;13.27;;;14.10;99.90;;;;;;5090071;28;20446;-66
2021/07/22 03:41:28;;;;;;;17.67;12.23;;;14.10;99.90;;;;;;5090165;28;20454;-66
2021/07/22 03:43:56;;;;;;;19.10;15.00;;;14.20;99.90;;;;;;5090397;28;20553;-67
2021/07/22 03:46:23;;;;;;;15.97;12.97;;;14.20;99.90;;;;;;5090193;28;20572;-67
2021/07/22 03:48:50;;;;;;;15.03;12.67;;;14.20;99.90;;;;;;5090276;28;20446;-67
2021/07/22 03:51:16;;;;;;;16.53;13.00;;;14.10;99.90;;;;;;5089439;28;20446;-69
2021/07/22 03:53:43;;;;;;;17.20;12.73;;;14.00;99.90;;;;;;5090291;28;20478;-67
2021/07/22 03:56:11;;;;;;;20.10;14.10;;;14.10;99.90;;;;;;5090271;28;20457;-67
2021/07/22 03:58:38;;;;;;;17.87;13.17;;;14.00;99.90;;;;;;5090255;28;20816;-68
2021/07/22 04:01:06;;;;;;;14.40;11.07;;;14.10;99.90;;;;;;5090353;28;20456;-66
2021/07/22 04:03:35;;;;;;;17.43;12.97;;;14.00;99.90;;;;;;5090419;28;20820;-66
2021/07/22 04:06:03;;;;;;;13.20;11.80;;;14.10;99.90;;;;;;5091200;28;20478;-65
2021/07/22 04:08:30;;;;;;;15.70;12.60;;;14.10;99.90;;;;;;5092777;28;20533;-64
2021/07/22 04:10:57;;;;;;;13.67;11.83;;;14.10;99.90;;;;;;5089646;28;20521;-64
2021/07/22 04:13:25;;;;;;;18.07;11.63;;;14.20;99.90;;;;;;5090048;28;20453;-65
2021/07/22 04:15:52;;;;;;;16.80;12.90;;;14.20;99.90;;;;;;5089468;28;20446;-64
2021/07/22 04:18:18;;;;;;;17.10;13.07;;;14.30;99.90;;;;;;5089824;28;20454;-65
2021/07/22 04:20:45;;;;;;;19.20;12.30;;;14.40;99.90;;;;;;5089488;28;20951;-65
2021/07/22 04:23:12;;;;;;;18.50;12.60;;;14.50;99.90;;;;;;5089875;28;20442;-65
2021/07/22 04:25:39;;;;;;;13.87;11.40;;;14.50;99.90;;;;;;5090193;28;20482;-65
2021/07/22 04:28:06;;;;;;;15.43;11.40;;;14.50;99.90;;;;;;5090322;28;20548;-65
2021/07/22 04:30:34;;;;;;;17.13;11.57;;;14.50;99.90;;;;;;5089536;28;20450;-63
2021/07/22 04:33:01;;;;;;;15.50;12.30;;;14.50;99.90;;;;;;5089879;28;20445;-65
2021/07/22 04:35:28;;;;;;;17.20;11.90;;;14.50;99.90;;;;;;5089234;28;20543;-67
2021/07/22 04:37:55;;;;;;;12.30;11.00;;;14.60;99.90;;;;;;5089709;28;20528;-65
2021/07/22 04:40:21;;;;;;;14.27;11.17;;;14.60;99.90;;;;;;5089363;28;20536;-66
2021/07/22 04:42:48;;;;;;;12.63;11.13;;;14.70;99.90;;;;;;5089531;28;20883;-66
2021/07/22 04:45:15;;;;;;;14.73;11.87;;;14.60;99.90;;;;;;5089183;28;20485;-66
2021/07/22 04:47:44;;;;;;;12.63;10.43;;;14.70;99.90;;;;;;5089536;28;20446;-67
2021/07/22 04:50:12;;;;;;;14.07;12.00;;;14.70;99.90;;;;;;5089517;28;20537;-66
2021/07/22 04:52:39;;;;;;;15.80;12.43;;;14.70;99.90;;;;;;5089638;28;20446;-67
2021/07/22 04:55:07;;;;;;;13.00;11.10;;;14.70;99.90;;;;;;5089680;28;20505;-67
2021/07/22 04:57:33;;;;;;;14.57;11.07;;;14.80;99.90;;;;;;5089235;28;20446;-67
2021/07/22 05:00:00;;;;;;;14.63;12.20;;;14.90;99.90;;;;;;5084057;28;20446;-68
2021/07/22 05:02:27;;;;;;;15.77;11.13;;;14.90;99.90;;;;;;5087486;28;20453;-67
2021/07/22 05:04:55;;;;;;;13.43;11.07;;;15.00;99.90;;;;;;5088853;28;20502;-66
2021/07/22 05:07:22;;;;;;;15.60;12.60;;;15.10;99.90;;;;;;5086508;28;20557;-69
2021/07/22 05:09:49;;;;;;;14.90;12.60;;;15.10;99.90;;;;;;5088852;28;20967;-67
2021/07/22 05:12:16;;;;;;;14.53;11.57;;;15.20;99.90;;;;;;5092638;28;20549;-66
2021/07/22 05:14:43;;;;;;;15.50;12.97;;;15.30;99.90;;;;;;5092878;28;20472;-67
2021/07/22 05:17:09;;;;;;;13.80;11.13;;;15.40;99.90;;;;;;5092093;28;20988;-67
2021/07/22 05:19:36;;;;;;;12.93;11.57;;;15.50;99.90;;;;;;5090955;28;20456;-68
2021/07/22 05:22:05;;;;;;;16.43;11.30;;;15.40;99.90;;;;;;5091367;28;20525;-66
2021/07/22 05:24:32;;;;;;;14.33;11.23;;;15.50;99.90;;;;;;5091165;28;20476;-65
2021/07/22 05:26:59;;;;;;;16.00;12.27;;;15.60;99.90;;;;;;5090969;28;20482;-67
2021/07/22 05:29:26;;;;;;;12.37;10.57;;;15.70;99.90;;;;;;5092003;28;20536;-66
2021/07/22 05:31:53;;;;;;;14.00;11.53;;;15.70;99.90;;;;;;5092525;28;20529;-68
2021/07/22 05:34:19;;;;;;;14.90;12.17;;;15.80;99.90;;;;;;5092190;28;20972;-66
2021/07/22 05:36:47;;;;;;;19.23;12.13;;;15.90;99.90;;;;;;5092381;28;20456;-65
2021/07/22 05:39:15;;;;;;;13.27;10.80;;;16.00;99.90;;;;;;5091970;28;20470;-67
2021/07/22 05:41:42;;;;;;;13.90;11.97;;;16.00;99.90;;;;;;5092114;28;21012;-65
2021/07/22 05:44:09;;;;;;;14.67;11.40;;;16.10;99.90;;;;;;5091931;28;20569;-66
2021/07/22 05:46:36;;;;;;;15.30;11.63;;;16.20;99.90;;;;;;5091893;28;20482;-67
2021/07/22 05:49:03;;;;;;;16.80;11.80;;;16.30;99.90;;;;;;5091981;28;20529;-66
2021/07/22 05:51:32;;;;;;;13.83;12.33;;;16.40;99.90;;;;;;5092225;28;20551;-68
2021/07/22 05:53:59;;;;;;;15.90;11.13;;;16.50;99.90;;;;;;5092064;28;20545;-67
2021/07/22 05:56:28;;;;;;;14.53;12.40;;;16.60;99.90;;;;;;5091940;28;20928;-67
2021/07/22 05:58:55;;;;;;;14.30;12.80;;;16.60;99.90;;;;;;5092128;28;20449;-67
2021/07/22 06:01:22;;;;;;;15.90;12.50;;;16.70;99.90;;;;;;5092176;28;20449;-67
2021/07/22 06:03:49;;;;;;;15.87;12.50;;;16.60;99.90;;;;;;5091779;28;21053;-68
2021/07/22 06:06:16;;;;;;;17.47;12.90;;;16.80;99.90;;;;;;5091882;28;20568;-67
2021/07/22 06:08:43;;;;;;;15.83;12.50;;;16.80;99.90;;;;;;5091721;28;20454;-68
2021/07/22 06:11:12;;;;;;;15.00;12.93;;;16.90;99.90;;;;;;5091602;28;20456;-67
2021/07/22 06:13:40;;;;;;;13.40;11.90;;;17.00;99.90;;;;;;5091283;28;20557;-68
2021/07/22 06:16:10;;;;;;;14.17;12.60;;;17.20;99.90;;;;;;5092240;28;20442;-68
2021/07/22 06:18:37;;;;;;;12.57;11.27;;;17.20;99.90;;;;;;5091712;28;20959;-69
2021/07/22 06:21:04;;;;;;;16.47;14.67;;;17.40;99.90;;;;;;5091432;28;20448;-67
2021/07/22 06:23:31;;;;;;;18.30;13.10;;;17.50;99.90;;;;;;5091491;28;20846;-68
2021/07/22 06:25:57;;;;;;;17.90;12.73;;;17.60;99.90;;;;;;5091671;28;20474;-67
2021/07/22 06:28:26;;;;;;;18.47;13.20;;;17.60;99.90;;;;;;5091938;28;20450;-67
2021/07/22 06:30:56;;;;;;;15.57;11.60;;;17.60;99.90;;;;;;5091355;28;20537;-68
2021/07/22 06:33:24;;;;;;;15.80;13.37;;;17.70;99.90;;;;;;5091197;28;20446;-67
2021/07/22 06:35:51;;;;;;;17.23;13.67;;;17.80;99.90;;;;;;5091335;28;20533;-66
2021/07/22 06:38:18;;;;;;;15.47;13.20;;;17.80;99.90;;;;;;5091046;28;21043;-67
2021/07/22 06:40:45;;;;;;;18.30;12.87;;;17.90;99.90;;;;;;5091145;28;20442;-67
2021/07/22 06:43:13;;;;;;;12.13;10.80;;;18.10;99.90;;;;;;5091104;28;20822;-68
2021/07/22 06:45:40;;;;;;;15.53;13.03;;;18.30;99.90;;;;;;5091427;28;20936;-68
2021/07/22 06:48:09;;;;;;;13.03;11.20;;;18.40;99.90;;;;;;5091402;28;20454;-67
2021/07/22 06:50:37;;;;;;;14.77;13.07;;;18.50;99.90;;;;;;5090938;28;20521;-69
2021/07/22 06:53:04;;;;;;;17.80;12.60;;;18.60;99.90;;;;;;5090883;28;20456;-68
2021/07/22 06:55:32;;;;;;;13.70;11.97;;;18.70;99.90;;;;;;5090820;28;20822;-67
2021/07/22 06:58:04;;;;;;;16.33;12.50;;;18.90;99.90;;;;;;5090752;28;20533;-68
2021/07/22 07:00:31;;;;;;;15.10;12.70;;;19.10;99.90;;;;;;5090471;28;20507;-67
2021/07/22 07:02:58;;;;;;;16.80;13.00;;;19.30;99.90;;;;;;5090634;28;20818;-67
2021/07/22 07:05:26;;;;;;;19.83;12.27;;;19.40;99.90;;;;;;5090430;28;20474;-64
2021/07/22 07:07:55;;;;;;;15.30;12.10;;;19.50;99.90;;;;;;5090653;28;20452;-66
2021/07/22 07:10:23;;;;;;;16.50;13.23;;;19.60;99.90;;;;;;5090457;28;20446;-65
2021/07/22 07:12:50;;;;;;;13.93;12.20;;;19.80;99.90;;;;;;5090567;28;20507;-66
2021/07/22 07:15:17;;;;;;;16.60;13.60;;;19.90;99.90;;;;;;5090605;28;20473;-67
2021/07/22 07:17:44;;;;;;;16.70;12.33;;;20.00;99.90;;;;;;5090192;28;20438;-67
2021/07/22 07:20:11;;;;;;;14.33;12.10;;;19.90;99.90;;;;;;5090201;28;20958;-67
2021/07/22 07:22:39;;;;;;;12.77;11.03;;;19.80;99.90;;;;;;5090514;28;20453;-68
2021/07/22 07:25:07;;;;;;;14.53;13.03;;;19.80;99.90;;;;;;5090066;28;20481;-67
2021/07/22 07:27:35;;;;;;;15.83;11.73;;;19.90;99.90;;;;;;5089718;28;20478;-67
2021/07/22 07:30:03;;;;;;;12.63;10.80;;;20.00;99.90;;;;;;5089971;28;21130;-67
2021/07/22 07:32:30;;;;;;;14.33;11.70;;;20.10;99.90;;;;;;5090764;28;20453;-67
2021/07/22 07:34:57;;;;;;;12.90;11.60;;;20.30;99.90;;;;;;5090603;28;20466;-67
2021/07/22 07:37:23;;;;;;;15.90;12.13;;;20.50;99.90;;;;;;5090520;28;20506;-67
2021/07/22 07:39:52;;;;;;;13.67;12.27;;;20.50;99.90;;;;;;5090200;28;20537;-67
2021/07/22 07:42:18;;;;;;;14.47;11.93;;;20.50;99.90;;;;;;5090417;28;20446;-68
2021/07/22 07:44:45;;;;;;;12.40;10.83;;;20.60;99.90;;;;;;5091749;28;20476;-68
2021/07/22 07:47:12;;;;;;;14.30;12.57;;;20.70;99.90;;;;;;5091310;28;20482;-67
2021/07/22 07:49:39;;;;;;;13.70;12.23;;;20.90;99.90;;;;;;5091334;28;20440;-68
2021/07/22 07:52:06;;;;;;;12.97;11.67;;;21.00;99.90;;;;;;5090526;28;20533;-67
2021/07/22 07:54:33;;;;;;;13.73;9.90;;;21.10;99.90;;;;;;5090419;28;20472;-66
2021/07/22 07:57:01;;;;;;;12.97;10.57;;;21.20;99.90;;;;;;5090627;28;20521;-66
2021/07/22 07:59:28;;;;;;;11.70;10.53;;;21.20;99.90;;;;;;5090432;28;20541;-67
2021/07/22 08:01:55;;;;;;;11.40;10.20;;;21.30;99.90;;;;;;5091018;28;20464;-66
2021/07/22 08:04:22;;;;;;;11.80;10.70;;;21.20;99.90;;;;;;5090350;28;20545;-67
2021/07/22 08:06:48;;;;;;;12.97;11.00;;;21.20;99.90;;;;;;5090472;28;20481;-67
2021/07/22 08:09:15;;;;;;;13.60;12.17;;;21.20;99.90;;;;;;5090107;28;20438;-67
2021/07/22 08:11:42;;;;;;;12.43;11.13;;;21.30;99.90;;;;;;5090397;28;20541;-68
2021/07/22 08:14:11;;;;;;;14.63;9.90;;;21.30;99.90;;;;;;5089954;28;20499;-67
2021/07/22 08:16:37;;;;;;;11.27;9.70;;;21.50;99.90;;;;;;5090114;28;20469;-67
2021/07/22 08:19:05;;;;;;;11.23;9.90;;;21.70;99.90;;;;;;5089499;28;20970;-67
2021/07/22 08:21:32;;;;;;;13.13;10.17;;;21.90;99.90;;;;;;5090527;28;20529;-67
2021/07/22 08:23:59;;;;;;;12.10;10.83;;;22.10;99.90;;;;;;5092362;28;20987;-67
2021/07/22 08:26:26;;;;;;;12.70;9.67;;;22.30;99.90;;;;;;5091759;28;20576;-67
2021/07/22 08:28:52;;;;;;;10.57;9.13;;;22.40;99.90;;;;;;5091556;28;20456;-68
2021/07/22 08:31:21;;;;;;;12.87;9.60;;;22.50;99.90;;;;;;5091451;28;20446;-67
2021/07/22 08:33:50;;;;;;;11.77;10.57;;;22.60;99.90;;;;;;5091623;28;20765;-67
2021/07/22 08:36:17;;;;;;;13.07;8.93;;;22.60;99.90;;;;;;5091637;28;20541;-68
2021/07/22 08:38:43;;;;;;;12.27;9.20;;;22.70;99.90;;;;;;5094705;28;20547;-67
2021/07/22 08:41:14;;;;;;;13.67;10.27;;;22.80;99.90;;;;;;5095769;28;20628;-66
2021/07/22 08:43:41;;;;;;;11.50;9.50;;;22.90;99.90;;;;;;5094612;28;20549;-68
2021/07/22 08:46:08;;;;;;;12.53;8.97;;;23.10;99.90;;;;;;5094473;28;20442;-68
2021/07/22 08:48:37;;;;;;;11.50;8.70;;;23.30;99.90;;;;;;5094045;28;20948;-67
2021/07/22 08:51:04;;;;;;;11.17;8.30;;;23.40;99.90;;;;;;5093668;28;20454;-67
2021/07/22 08:53:31;;;;;;;11.03;8.70;;;23.60;99.90;;;;;;5093930;28;20559;-67
2021/07/22 08:56:00;;;;;;;10.37;8.90;;;23.60;99.90;;;;;;5094514;28;20559;-67
2021/07/22 08:58:28;;;;;;;9.63;8.30;;;23.70;99.90;;;;;;5093866;28;20450;-66
2021/07/22 09:00:56;;;;;;;13.83;9.80;;;23.70;99.90;;;;;;5093660;28;20453;-66
2021/07/22 09:03:23;;;;;;;9.20;8.27;;;23.70;99.90;;;;;;5093878;28;20538;-66
2021/07/22 09:05:51;;;;;;;10.03;9.03;;;23.90;99.90;;;;;;5093774;28;20445;-66
2021/07/22 09:08:18;;;;;;;12.30;8.70;;;24.00;99.90;;;;;;5093203;28;20660;-66
2021/07/22 09:11:05;;;;;;;10.20;9.00;;;24.10;99.90;;;;;;5092717;28;20442;-67
2021/07/22 09:13:32;;;;;;;10.60;8.63;;;24.10;99.90;;;;;;5092825;28;20465;-66
2021/07/22 09:15:59;;;;;;;12.50;8.43;;;24.20;99.90;;;;;;5092826;28;20533;-66
2021/07/22 09:18:28;;;;;;;9.40;8.40;;;24.30;99.90;;;;;;5092533;28;20673;-67
2021/07/22 09:20:56;;;;;;;16.90;7.93;;;24.50;99.90;;;;;;5092109;28;20533;-67
2021/07/22 09:23:24;;;;;;;8.83;7.73;;;24.70;99.90;;;;;;5092617;28;20443;-68
2021/07/22 09:25:53;;;;;;;8.83;7.23;;;25.00;99.90;;;;;;5092660;28;20473;-67
2021/07/22 09:28:21;;;;;;;8.87;8.07;;;25.30;99.90;;;;;;5092343;28;20470;-67
2021/07/22 09:30:58;;;;;;;9.53;7.57;;;25.40;99.90;;;;;;5092147;28;20449;-67
2021/07/22 09:33:37;;;;;;;10.13;7.40;;;25.50;99.90;;;;;;5092452;28;20446;-66
2021/07/22 09:36:06;;;;;;;8.03;7.33;;;25.50;99.90;;;;;;5092392;28;20442;-66
2021/07/22 09:38:33;;;;;;;8.33;7.50;;;25.40;99.90;;;;;;5092360;28;20438;-66
2021/07/22 09:41:00;;;;;;;9.30;7.33;;;25.40;99.90;;;;;;5092006;28;20448;-67
2021/07/22 09:43:38;;;;;;;10.27;7.87;;;25.50;99.90;;;;;;5092225;28;20954;-66
2021/07/22 09:46:05;;;;;;;8.50;7.67;;;25.80;99.90;;;;;;5092178;28;20442;-67
2021/07/22 09:48:31;;;;;;;10.73;8.10;;;26.00;99.90;;;;;;5091209;28;21003;-66
2021/07/22 09:50:58;;;;;;;8.10;7.40;;;26.20;99.90;;;;;;5091493;28;20551;-67
2021/07/22 09:53:28;;;;;;;9.07;7.70;;;26.10;99.70;;;;;;5092006;28;20537;-67
2021/07/22 09:55:55;;;;;;;8.93;7.37;;;26.10;99.90;;;;;;5092005;28;20446;-68
2021/07/22 09:58:23;;;;;;;9.30;7.90;;;26.60;99.90;;;;;;5091737;28;20532;-66
2021/07/22 10:00:51;;;;;;;9.10;8.20;;;27.20;99.90;;;;;;5091687;28;20795;-67
2021/07/22 10:03:21;;;;;;;8.30;7.00;;;27.80;99.90;;;;;;5091913;28;20622;-66
2021/07/22 10:05:51;;;;;;;9.40;7.30;;;28.40;99.90;;;;;;5091941;28;20883;-66
2021/07/22 10:08:19;;;;;;;7.97;7.17;;;29.10;95.40;;;;;;5091799;28;21011;-67
2021/07/22 10:10:52;;;;;;;9.10;6.70;;;29.20;95.30;;;;;;5091462;28;20443;-67
2021/07/22 10:13:23;;;;;;;9.00;7.00;;;29.60;95.80;;;;;;5091872;28;20442;-66
2021/07/22 10:15:52;;;;;;;7.80;7.10;;;30.10;92.10;;;;;;5091420;28;20450;-67
2021/07/22 10:18:23;;;;;;;7.73;7.00;;;30.20;92.00;;;;;;5091611;28;20493;-67
2021/07/22 10:20:52;;;;;;;7.70;6.83;;;30.20;90.50;;;;;;5091258;28;20438;-68
2021/07/22 10:23:21;;;;;;;7.47;6.77;;;30.80;90.10;;;;;;5091557;28;20442;-67
2021/07/22 10:25:51;;;;;;;9.77;7.90;;;30.60;90.50;;;;;;5091391;28;20979;-68
2021/07/22 10:28:18;;;;;;;13.03;6.63;;;30.20;86.40;;;;;;5091250;28;20482;-68
2021/07/22 10:30:46;;;;;;;7.13;6.53;;;29.90;91.10;;;;;;5091163;28;20452;-67
2021/07/22 10:33:17;;;;;;;7.53;6.60;;;30.20;86.40;;;;;;5091041;28;20950;-66
2021/07/22 10:35:44;;;;;;;7.83;6.50;;;30.40;83.50;;;;;;5091370;28;20450;-67
2021/07/22 10:38:14;;;;;;;7.30;6.60;;;30.30;87.40;;;;;;5091288;28;20531;-67
2021/07/22 10:40:45;;;;;;;9.53;6.23;;;30.40;85.40;;;;;;5090881;28;20449;-67
2021/07/22 10:43:41;;;;;;;6.73;6.03;;;31.00;86.60;;;;;;5090867;28;20449;-66
2021/07/22 10:46:10;;;;;;;9.40;6.87;;;30.80;81.70;;;;;;5090956;28;20967;-67
2021/07/22 10:48:37;;;;;;;8.47;7.20;;;30.50;82.50;;;;;;5090895;28;20927;-67
2021/07/22 10:51:08;;;;;;;7.57;6.60;;;30.70;85.90;;;;;;5090713;28;20852;-68
2021/07/22 10:53:47;;;;;;;7.60;6.90;;;30.80;83.50;;;;;;5090876;28;20469;-67
2021/07/22 10:56:16;;;;;;;8.53;7.63;;;31.30;85.40;;;;;;5090872;28;20529;-67
2021/07/22 10:58:59;;;;;;;7.90;6.50;;;31.50;83.70;;;;;;5090945;28;20447;-68
2021/07/22 11:01:58;;;;;;;7.93;7.00;;;31.80;82.80;;;;;;5090489;28;20448;-66
2021/07/22 11:04:42;;;;;;;9.27;7.43;;;31.80;78.40;;;;;;5056344;28;21219;-64
2021/07/22 11:07:17;;;;;;;7.70;7.00;;;31.00;81.60;;;;;;5090661;28;20614;-67
2021/07/22 11:09:44;;;;;;;9.97;6.50;;;31.00;90.00;;;;;;5090433;28;20445;-67
2021/07/22 11:12:12;;;;;;;8.63;6.57;;;31.40;86.00;;;;;;5090350;28;20450;-66
2021/07/22 11:14:40;;;;;;;10.23;7.63;;;32.00;80.40;;;;;;5090999;28;20466;-67
2021/07/22 11:17:07;;;;;;;8.13;7.33;;;32.20;77.70;;;;;;5090687;28;20512;-67
2021/07/22 11:19:34;;;;;;;7.80;7.00;;;32.50;81.80;;;;;;5090666;28;20460;-67
2021/07/22 11:22:02;;;;;;;7.83;6.70;;;33.20;82.50;;;;;;5090869;28;20446;-67
2021/07/22 11:24:30;;;;;;;7.33;6.63;;;33.50;83.70;;;;;;5092246;28;20896;-67
2021/07/22 11:26:58;;;;;;;7.60;6.80;;;33.60;76.60;;;;;;5091794;28;20450;-68
2021/07/22 11:29:26;;;;;;;7.23;6.47;;;32.90;75.40;;;;;;5089826;28;20446;-65
2021/07/22 11:31:55;;;;;;;11.70;7.17;;;32.60;77.50;;;;;;5090096;28;20452;-66
2021/07/22 11:34:29;;;;;;;7.63;6.90;;;32.60;75.70;;;;;;5089900;28;21001;-66
2021/07/22 11:36:57;;;;;;;10.10;7.90;;;32.00;76.50;;;;;;5090187;28;20525;-66
2021/07/22 11:39:34;;;;;;;8.33;7.53;;;31.80;79.10;;;;;;5088596;28;20434;-67
2021/07/22 11:42:05;;;;;;;9.07;7.97;;;31.40;80.70;;;;;;5089438;28;20858;-67
2021/07/22 11:44:32;;;;;;;9.43;8.50;;;31.00;78.30;;;;;;5089770;28;20460;-66
2021/07/22 11:47:01;;;;;;;8.53;7.73;;;31.00;79.60;;;;;;5090088;28;20533;-66
2021/07/22 11:49:34;;;;;;;14.60;9.10;;;31.00;78.80;;;;;;5089623;28;20444;-66
2021/07/22 11:52:01;;;;;;;9.00;6.97;;;30.90;80.50;;;;;;5089932;28;20978;-66
2021/07/22 11:54:28;;;;;;;8.13;7.30;;;31.10;79.10;;;;;;5089655;28;20470;-66
2021/07/22 11:56:57;;;;;;;8.30;7.30;;;31.40;81.30;;;;;;5089967;28;20537;-68
2021/07/22 11:59:28;;;;;;;10.20;8.20;;;32.00;79.60;;;;;;5089601;28;20446;-66
2021/07/22 12:01:56;;;;;;;10.77;7.93;;;32.10;78.70;;;;;;5089943;28;20449;-67
2021/07/22 12:04:27;;;;;;;8.73;7.93;;;31.90;79.20;;;;;;5089717;28;20473;-65
2021/07/22 12:06:55;;;;;;;11.90;8.00;;;31.60;80.50;;;;;;5089497;28;20461;-66
2021/07/22 12:09:22;;;;;;;11.50;7.90;;;31.90;80.90;;;;;;5089586;28;20453;-66
2021/07/22 12:11:51;;;;;;;8.27;7.40;;;32.40;81.90;;;;;;5089959;28;20541;-68
2021/07/22 12:14:29;;;;;;;8.27;7.43;;;32.70;77.50;;;;;;5094084;28;20556;-65
2021/07/22 12:16:59;;;;;;;8.87;7.97;;;33.20;75.10;;;;;;5093965;28;20445;-66
2021/07/22 12:19:29;;;;;;;9.80;7.97;;;33.70;72.90;;;;;;5093470;28;20556;-66
2021/07/22 12:22:19;;;;;;;8.50;7.30;;;33.80;77.50;;;;;;5093977;28;20445;-66
2021/07/22 12:24:46;;;;;;;8.17;7.40;;;34.30;70.20;;;;;;5088389;28;20466;-65
2021/07/22 12:27:30;;;;;;;9.00;8.10;;;33.50;71.60;;;;;;5088515;28;20545;-65
2021/07/22 12:29:57;;;;;;;10.73;8.87;;;33.50;75.50;;;;;;5086705;28;20839;-65
2021/07/22 12:32:24;;;;;;;9.60;7.30;;;33.40;73.80;;;;;;5079951;28;20610;-64
2021/07/22 12:34:52;;;;;;;9.27;8.37;;;34.10;75.90;;;;;;5081648;28;20551;-65
2021/07/22 12:37:37;;;;;;;13.23;8.00;;;34.80;75.20;;;;;;5080306;28;20438;-68